createdAt,value
2022-12-20T00:27:48.974Z,2.92
2022-12-20T00:28:48.949Z,2.95
2022-12-20T00:29:48.946Z,3.01
2022-12-20T00:30:48.923Z,3.00
2022-12-20T00:31:49.800Z,2.98
2022-12-20T00:32:48.921Z,3.05
2022-12-20T00:33:50.016Z,2.92
2022-12-20T00:34:50.003Z,3.00
2022-12-20T00:35:49.982Z,3.01
2022-12-20T00:36:49.972Z,3.00
2022-12-20T00:37:49.983Z,2.92
2022-12-20T00:38:50.970Z,2.95
2022-12-20T00:39:51.741Z,2.86
2022-12-20T00:40:50.946Z,2.92
2022-12-20T00:41:49.944Z,2.89
2022-12-20T00:42:49.943Z,2.83
2022-12-20T00:43:49.937Z,2.87
2022-12-20T00:44:49.911Z,2.89
2022-12-20T00:45:51.745Z,2.92
2022-12-20T00:46:49.936Z,2.87
2022-12-20T00:47:49.894Z,2.93
2022-12-20T00:48:49.885Z,2.90
2022-12-20T00:49:49.872Z,2.86
2022-12-20T00:50:49.867Z,2.89
2022-12-20T00:51:49.875Z,2.85
2022-12-20T00:52:49.852Z,2.92
2022-12-20T00:53:49.847Z,2.87
2022-12-20T00:54:49.833Z,2.85
2022-12-20T00:55:49.834Z,2.85
2022-12-20T00:56:49.817Z,2.90
2022-12-20T00:57:49.811Z,2.92
2022-12-20T00:58:49.826Z,2.90
2022-12-20T00:59:49.820Z,2.83
2022-12-20T01:00:55.791Z,3.03
2022-12-20T01:01:52.618Z,2.97
2022-12-20T01:02:50.702Z,2.86
2022-12-20T01:03:50.512Z,2.92
2022-12-20T01:04:49.757Z,3.03
2022-12-20T01:05:49.752Z,2.92
2022-12-20T01:06:49.739Z,3.07
2022-12-20T01:07:49.742Z,3.05
2022-12-20T01:08:49.773Z,3.05
2022-12-20T01:09:49.720Z,3.03
2022-12-20T01:10:49.712Z,2.90
2022-12-20T01:11:49.717Z,3.04
2022-12-20T01:12:49.711Z,3.08
2022-12-20T01:13:50.365Z,3.07
2022-12-20T01:14:49.674Z,3.10
2022-12-20T01:15:50.723Z,3.10
2022-12-20T01:16:49.720Z,3.13
2022-12-20T01:17:49.663Z,3.07
2022-12-20T01:18:49.651Z,3.00
2022-12-20T01:19:49.637Z,3.04
2022-12-20T01:20:49.640Z,3.04
2022-12-20T01:21:49.638Z,3.03
2022-12-20T01:22:49.635Z,3.05
2022-12-20T01:23:49.619Z,3.05
2022-12-20T01:24:49.608Z,3.08
2022-12-20T01:25:49.607Z,3.07
2022-12-20T01:26:49.625Z,3.10
2022-12-20T01:27:49.583Z,3.13
2022-12-20T01:28:49.567Z,3.14
2022-12-20T01:29:49.567Z,3.13
2022-12-20T01:30:49.584Z,3.25
2022-12-20T01:31:49.633Z,3.23
2022-12-20T01:32:49.536Z,3.10
2022-12-20T01:33:49.530Z,3.16
2022-12-20T01:34:50.250Z,3.13
2022-12-20T01:35:49.556Z,3.25
2022-12-20T01:36:49.558Z,3.14
2022-12-20T01:37:49.514Z,3.32
2022-12-20T01:38:49.495Z,3.31
2022-12-20T01:39:49.498Z,3.29
2022-12-20T01:40:49.475Z,3.36
2022-12-20T01:41:49.492Z,3.48
2022-12-20T01:42:49.459Z,3.58
2022-12-20T01:43:49.453Z,3.44
2022-12-20T01:44:49.465Z,3.51
2022-12-20T01:45:49.491Z,3.55
2022-12-20T01:46:49.429Z,3.53
2022-12-20T01:47:50.290Z,3.48
2022-12-20T01:48:49.442Z,3.51
2022-12-20T01:49:49.410Z,3.53
2022-12-20T01:50:49.412Z,3.55
2022-12-20T01:51:49.404Z,3.51
2022-12-20T01:52:49.397Z,3.65
2022-12-20T01:53:49.376Z,3.60
2022-12-20T01:54:49.390Z,3.70
2022-12-20T01:55:53.340Z,3.70
2022-12-20T01:56:49.367Z,3.73
2022-12-20T01:57:49.345Z,3.51
2022-12-20T01:58:49.353Z,3.62
2022-12-20T01:59:50.335Z,3.50
2022-12-20T02:00:49.381Z,3.58
2022-12-20T02:01:49.953Z,3.60
2022-12-20T02:02:49.516Z,3.63
2022-12-20T02:03:49.310Z,3.50
2022-12-20T02:04:49.306Z,3.48
2022-12-20T02:05:49.285Z,3.55
2022-12-20T02:06:49.306Z,3.65
2022-12-20T02:07:49.277Z,3.65
2022-12-20T02:08:49.253Z,3.73
2022-12-20T02:09:49.258Z,3.69
2022-12-20T02:10:49.252Z,3.69
2022-12-20T02:11:49.242Z,3.66
2022-12-20T02:12:49.233Z,3.69
2022-12-20T02:13:49.765Z,3.69
2022-12-20T02:14:49.267Z,3.69
2022-12-20T02:15:49.210Z,3.69
2022-12-20T02:16:49.271Z,3.74
2022-12-20T02:17:50.840Z,3.65
2022-12-20T02:18:49.203Z,3.73
2022-12-20T02:19:50.179Z,3.69
2022-12-20T02:20:49.182Z,3.66
2022-12-20T02:21:49.166Z,3.69
2022-12-20T02:22:49.155Z,3.70
2022-12-20T02:23:49.846Z,3.74
2022-12-20T02:24:49.769Z,3.77
2022-12-20T02:25:50.759Z,3.81
2022-12-20T02:26:49.147Z,3.86
2022-12-20T02:27:49.863Z,3.86
2022-12-20T02:28:49.119Z,3.84
2022-12-20T02:29:49.099Z,3.83
2022-12-20T02:30:49.094Z,3.91
2022-12-20T02:31:49.141Z,3.95
2022-12-20T02:32:49.078Z,3.88
2022-12-20T02:33:50.874Z,3.91
2022-12-20T02:34:49.062Z,3.96
2022-12-20T02:35:49.057Z,3.98
2022-12-20T02:36:49.763Z,4.04
2022-12-20T02:37:49.847Z,4.02
2022-12-20T02:38:49.038Z,4.10
2022-12-20T02:39:49.026Z,4.17
2022-12-20T02:40:49.764Z,4.24
2022-12-20T02:41:49.842Z,4.19
2022-12-20T02:42:49.004Z,4.30
2022-12-20T02:43:50.836Z,4.40
2022-12-20T02:44:49.005Z,4.24
2022-12-20T02:45:48.995Z,4.35
2022-12-20T02:46:49.846Z,4.42
2022-12-20T02:47:48.964Z,4.40
2022-12-20T02:48:48.944Z,4.42
2022-12-20T02:49:48.941Z,4.40
2022-12-20T02:50:48.933Z,4.35
2022-12-20T02:51:48.962Z,4.44
2022-12-20T02:52:48.913Z,4.40
2022-12-20T02:53:48.905Z,4.35
2022-12-20T02:54:48.908Z,4.41
2022-12-20T02:55:48.901Z,4.35
2022-12-20T02:56:48.912Z,4.32
2022-12-20T02:57:50.358Z,4.30
2022-12-20T02:58:48.875Z,4.14
2022-12-20T02:59:48.869Z,4.01
2022-12-20T03:00:48.855Z,3.99
2022-12-20T03:01:49.896Z,4.08
2022-12-20T03:02:50.950Z,4.17
2022-12-20T03:03:50.488Z,4.19
2022-12-20T03:04:48.826Z,4.12
2022-12-20T03:05:48.815Z,4.04
2022-12-20T03:06:48.873Z,3.99
2022-12-20T03:07:49.336Z,4.05
2022-12-20T03:08:50.339Z,3.98
2022-12-20T03:09:48.789Z,4.05
2022-12-20T03:10:48.761Z,3.96
2022-12-20T03:11:50.283Z,3.95
2022-12-20T03:12:48.777Z,3.98
2022-12-20T03:13:49.869Z,3.95
2022-12-20T03:14:48.736Z,4.05
2022-12-20T03:15:50.362Z,3.92
2022-12-20T03:16:48.772Z,3.91
2022-12-20T03:17:48.717Z,3.94
2022-12-20T03:18:49.351Z,3.91
2022-12-20T03:19:49.725Z,3.98
2022-12-20T03:20:48.702Z,3.98
2022-12-20T03:21:48.667Z,4.06
2022-12-20T03:22:48.788Z,3.84
2022-12-20T03:23:48.707Z,3.83
2022-12-20T03:24:48.658Z,3.84
2022-12-20T03:25:49.283Z,3.81
2022-12-20T03:26:49.664Z,3.86
2022-12-20T03:27:48.654Z,3.87
2022-12-20T03:28:49.386Z,3.87
2022-12-20T03:29:48.616Z,3.91
2022-12-20T03:30:48.719Z,3.81
2022-12-20T03:31:48.614Z,3.87
2022-12-20T03:32:49.826Z,3.81
2022-12-20T03:33:48.585Z,3.83
2022-12-20T03:34:48.578Z,3.77
2022-12-20T03:35:48.584Z,3.88
2022-12-20T03:36:48.571Z,3.92
2022-12-20T03:37:49.361Z,3.80
2022-12-20T03:38:48.875Z,3.69
2022-12-20T03:39:49.557Z,3.77
2022-12-20T03:40:48.547Z,3.76
2022-12-20T03:41:48.564Z,3.78
2022-12-20T03:42:49.368Z,3.68
2022-12-20T03:43:49.370Z,3.65
2022-12-20T03:44:48.568Z,3.59
2022-12-20T03:45:49.628Z,3.59
2022-12-20T03:46:49.344Z,3.51
2022-12-20T03:47:49.280Z,3.41
2022-12-20T03:48:48.500Z,3.42
2022-12-20T03:49:48.476Z,3.34
2022-12-20T03:50:48.452Z,3.31
2022-12-20T03:51:48.447Z,3.28
2022-12-20T03:52:48.462Z,3.28
2022-12-20T03:53:52.275Z,3.36
2022-12-20T03:54:49.369Z,3.25
2022-12-20T03:55:50.295Z,3.26
2022-12-20T03:56:48.409Z,3.29
2022-12-20T03:57:48.402Z,3.34
2022-12-20T03:58:48.406Z,3.36
2022-12-20T03:59:48.403Z,3.29
2022-12-20T04:00:48.378Z,3.29
2022-12-20T04:01:48.516Z,3.29
2022-12-20T04:02:48.522Z,3.28
2022-12-20T04:03:49.496Z,3.31
2022-12-20T04:04:48.357Z,3.31
2022-12-20T04:05:48.333Z,3.23
2022-12-20T04:06:48.383Z,3.23
2022-12-20T04:07:48.321Z,3.13
2022-12-20T04:08:48.310Z,3.19
2022-12-20T04:09:48.306Z,3.07
2022-12-20T04:10:49.302Z,3.13
2022-12-20T04:11:48.290Z,3.11
2022-12-20T04:12:48.286Z,3.13
2022-12-20T04:13:48.272Z,3.16
2022-12-20T04:14:48.270Z,3.19
2022-12-20T04:15:48.815Z,3.08
2022-12-20T04:16:48.264Z,3.11
2022-12-20T04:17:48.251Z,3.18
2022-12-20T04:18:48.239Z,3.16
2022-12-20T04:19:48.259Z,3.13
2022-12-20T04:20:48.217Z,3.07
2022-12-20T04:21:48.219Z,3.11
2022-12-20T04:22:48.211Z,3.03
2022-12-20T04:23:48.311Z,3.05
2022-12-20T04:24:48.201Z,3.01
2022-12-20T04:25:48.204Z,3.14
2022-12-20T04:26:48.186Z,3.08
2022-12-20T04:27:48.202Z,3.11
2022-12-20T04:28:48.164Z,3.13
2022-12-20T04:29:49.860Z,3.04
2022-12-20T04:30:48.185Z,3.07
2022-12-20T04:31:49.218Z,2.95
2022-12-20T04:32:48.125Z,3.10
2022-12-20T04:33:48.139Z,3.21
2022-12-20T04:34:48.111Z,3.18
2022-12-20T04:35:48.105Z,3.11
2022-12-20T04:36:48.103Z,3.32
2022-12-20T04:37:48.102Z,3.26
2022-12-20T04:38:48.096Z,3.34
2022-12-20T04:39:48.077Z,3.22
2022-12-20T04:40:48.073Z,3.32
2022-12-20T04:41:48.089Z,3.28
2022-12-20T04:42:48.052Z,3.31
2022-12-20T04:43:48.082Z,3.42
2022-12-20T04:44:48.042Z,3.45
2022-12-20T04:45:48.032Z,3.45
2022-12-20T04:46:48.872Z,3.48
2022-12-20T04:47:48.008Z,3.37
2022-12-20T04:48:57.988Z,3.41
2022-12-20T04:49:52.783Z,3.47
2022-12-20T04:50:47.993Z,3.45
2022-12-20T04:51:47.991Z,3.48
2022-12-20T04:52:48.502Z,3.48
2022-12-20T04:53:48.073Z,3.55
2022-12-20T04:54:47.959Z,3.55
2022-12-20T04:55:47.960Z,3.56
2022-12-20T04:56:47.935Z,3.45
2022-12-20T04:57:47.926Z,3.53
2022-12-20T04:58:47.926Z,3.50
2022-12-20T04:59:47.919Z,3.47
2022-12-20T05:00:47.926Z,3.44
2022-12-20T05:01:48.110Z,3.41
2022-12-20T05:02:48.096Z,3.44
2022-12-20T05:03:47.956Z,3.37
2022-12-20T05:04:47.877Z,3.47
2022-12-20T05:05:47.861Z,3.37
2022-12-20T05:06:47.856Z,3.36
2022-12-20T05:07:47.864Z,3.34
2022-12-20T05:08:47.842Z,3.32
2022-12-20T05:09:47.851Z,3.31
2022-12-20T05:10:47.829Z,3.32
2022-12-20T05:11:47.815Z,3.28
2022-12-20T05:12:47.819Z,3.29
2022-12-20T05:13:48.360Z,3.34
2022-12-20T05:14:47.793Z,3.34
2022-12-20T05:15:47.851Z,3.32
2022-12-20T05:16:47.782Z,3.41
2022-12-20T05:17:50.805Z,3.40
2022-12-20T05:18:49.527Z,3.53
2022-12-20T05:19:50.367Z,3.65
2022-12-20T05:20:48.888Z,3.78
2022-12-20T05:21:47.742Z,3.87
2022-12-20T05:22:47.729Z,3.94
2022-12-20T05:23:53.295Z,3.94
2022-12-20T05:24:48.710Z,3.98
2022-12-20T05:25:47.701Z,4.05
2022-12-20T05:26:47.699Z,4.12
2022-12-20T05:27:47.695Z,4.17
2022-12-20T05:28:47.699Z,4.26
2022-12-20T05:29:47.682Z,4.34
2022-12-20T05:30:47.666Z,4.37
2022-12-20T05:31:47.907Z,4.34
2022-12-20T05:32:47.650Z,4.37
2022-12-20T05:33:47.643Z,4.40
2022-12-20T05:34:47.641Z,4.44
2022-12-20T05:36:53.913Z,4.50
2022-12-20T05:37:54.776Z,4.53
2022-12-20T05:39:01.922Z,4.58
2022-12-20T05:39:55.284Z,4.58
2022-12-20T05:40:53.882Z,4.58
2022-12-20T05:41:53.875Z,4.62
2022-12-20T05:42:53.877Z,4.70
2022-12-20T05:43:53.861Z,4.63
2022-12-20T05:44:53.844Z,4.82
2022-12-20T05:45:54.755Z,4.78
2022-12-20T05:46:53.972Z,4.77
2022-12-20T05:47:54.921Z,4.87
2022-12-20T05:48:54.903Z,4.94
2022-12-20T05:49:54.965Z,5.02
2022-12-20T05:50:54.977Z,5.11
2022-12-20T05:51:55.772Z,5.00
2022-12-20T05:52:54.880Z,5.15
2022-12-20T05:53:55.773Z,5.08
2022-12-20T05:54:54.882Z,5.21
2022-12-20T05:55:54.877Z,5.20
2022-12-20T05:56:54.851Z,5.28
2022-12-20T05:57:59.266Z,5.28
2022-12-20T05:58:54.848Z,5.21
2022-12-20T05:59:55.826Z,5.26
2022-12-20T06:00:55.826Z,5.25
2022-12-20T06:01:56.008Z,5.33
2022-12-20T06:02:55.551Z,5.36
2022-12-20T06:03:54.877Z,5.30
2022-12-20T06:04:54.785Z,5.50
2022-12-20T06:05:55.364Z,5.36
2022-12-20T06:06:56.358Z,5.51
2022-12-20T06:07:54.762Z,5.38
2022-12-20T06:08:54.750Z,5.47
2022-12-20T06:09:54.755Z,5.46
2022-12-20T21:26:46.402Z,5.54
2022-12-20T21:27:46.360Z,5.47
2022-12-20T21:28:46.358Z,5.44
2022-12-20T21:29:46.348Z,5.44
2022-12-20T21:30:46.339Z,5.50
2022-12-20T21:31:46.432Z,5.50
2022-12-20T21:32:46.328Z,5.43
2022-12-20T21:33:46.312Z,5.41
2022-12-20T21:34:46.307Z,5.39
2022-12-20T21:35:53.586Z,5.38
2022-12-20T21:36:47.293Z,5.36
2022-12-20T21:37:46.280Z,5.38
2022-12-20T21:38:46.286Z,5.41
2022-12-20T21:39:46.269Z,5.38
2022-12-20T21:40:47.361Z,5.32
2022-12-20T21:41:47.359Z,5.32
2022-12-20T21:42:47.367Z,5.35
2022-12-20T21:43:47.337Z,5.29
2022-12-20T21:44:47.322Z,5.33
2022-12-20T21:45:47.383Z,5.35
2022-12-20T21:46:47.415Z,5.33
2022-12-20T21:47:47.305Z,5.26
2022-12-20T21:48:47.304Z,5.23
2022-12-20T21:49:47.311Z,5.36
2022-12-20T21:50:47.271Z,5.43
2022-12-20T21:51:47.279Z,5.30
2022-12-20T21:52:47.261Z,5.26
2022-12-20T21:53:47.272Z,5.35
2022-12-20T21:54:47.253Z,5.25
2022-12-20T21:55:47.235Z,5.33
2022-12-20T21:56:47.253Z,5.33
2022-12-20T21:57:47.211Z,5.43
2022-12-20T21:58:47.217Z,5.41
2022-12-20T21:59:47.209Z,5.36
2022-12-20T22:00:52.606Z,5.38
2022-12-20T22:01:49.315Z,5.44
2022-12-20T22:02:48.263Z,5.30
2022-12-20T22:03:47.203Z,5.46
2022-12-20T22:04:47.172Z,5.38
2022-12-20T22:05:47.195Z,5.36
2022-12-20T22:06:51.044Z,5.33
2022-12-20T22:07:47.141Z,5.36
2022-12-20T22:08:47.134Z,5.33
2022-12-20T22:09:47.978Z,5.33
2022-12-20T22:10:47.124Z,5.28
2022-12-20T22:11:47.124Z,5.38
2022-12-20T22:12:47.092Z,5.35
2022-12-20T22:13:47.114Z,5.41
2022-12-20T22:14:47.094Z,5.36
2022-12-20T22:15:47.090Z,5.33
2022-12-20T22:16:47.120Z,5.28
2022-12-20T22:17:47.065Z,5.38
2022-12-20T22:18:47.056Z,5.36
2022-12-20T22:19:47.057Z,5.38
2022-12-20T22:20:47.042Z,5.41
2022-12-20T22:21:49.777Z,5.48
2022-12-20T22:22:48.019Z,5.43
2022-12-20T22:23:47.030Z,5.53
2022-12-20T22:24:47.028Z,5.54
2022-12-20T22:25:46.993Z,5.56
2022-12-20T22:26:47.004Z,5.51
2022-12-20T22:27:46.976Z,5.61
2022-12-20T22:28:47.069Z,5.57
2022-12-20T22:29:46.963Z,5.46
2022-12-20T22:30:46.951Z,5.44
2022-12-20T22:31:47.044Z,5.47
2022-12-20T22:32:46.951Z,5.51
2022-12-20T22:33:46.945Z,5.65
2022-12-20T22:34:46.914Z,5.69
2022-12-20T22:35:46.918Z,5.73
2022-12-20T22:36:46.904Z,5.83
2022-12-20T22:37:46.886Z,5.82
2022-12-20T22:38:46.945Z,5.91
2022-12-20T22:39:46.885Z,5.93
2022-12-20T22:40:46.881Z,5.93
2022-12-20T22:41:46.869Z,5.94
2022-12-20T22:42:46.854Z,5.97
2022-12-20T22:43:46.840Z,6.07
2022-12-20T22:44:46.842Z,6.09
2022-12-20T22:45:46.890Z,6.11
2022-12-20T22:46:46.847Z,6.12
2022-12-20T22:47:46.817Z,6.19
2022-12-20T22:48:46.803Z,6.09
2022-12-20T22:49:46.817Z,6.26
2022-12-20T22:50:46.792Z,6.17
2022-12-20T22:51:55.163Z,6.26
2022-12-20T22:52:48.800Z,6.17
2022-12-20T22:53:46.763Z,6.27
2022-12-20T22:54:46.771Z,6.27
2022-12-20T22:55:46.739Z,6.28
2022-12-20T22:56:46.745Z,6.31
2022-12-20T22:57:48.559Z,6.24
2022-12-20T22:58:48.606Z,6.26
2022-12-20T22:59:46.736Z,6.26
2022-12-20T23:00:46.696Z,6.36
2022-12-20T23:01:47.249Z,6.33
2022-12-20T23:02:46.959Z,6.44
2022-12-20T23:03:46.706Z,6.38
2022-12-20T23:04:46.669Z,6.39
2022-12-20T23:05:46.654Z,6.39
2022-12-20T23:06:46.658Z,6.42
2022-12-20T23:07:46.736Z,6.44
2022-12-20T23:08:47.624Z,6.28
2022-12-20T23:09:46.648Z,6.33
2022-12-20T23:10:46.626Z,6.30
2022-12-20T23:11:46.623Z,6.30
2022-12-20T23:12:46.630Z,6.38
2022-12-20T23:13:46.600Z,6.42
2022-12-20T23:14:46.599Z,6.42
2022-12-20T23:15:46.579Z,6.44
2022-12-20T23:16:46.643Z,6.45
2022-12-20T23:17:46.581Z,6.36
2022-12-20T23:18:46.591Z,6.28
2022-12-20T23:19:46.549Z,6.38
2022-12-20T23:20:46.536Z,6.33
2022-12-20T23:21:46.528Z,6.39
2022-12-20T23:22:46.515Z,6.31
2022-12-20T23:23:50.939Z,6.30
2022-12-20T23:24:48.509Z,6.39
2022-12-20T23:25:46.546Z,6.30
2022-12-20T23:26:46.500Z,6.33
2022-12-20T23:27:47.041Z,6.33
2022-12-20T23:28:46.474Z,6.44
2022-12-20T23:29:46.485Z,6.36
2022-12-20T23:30:46.493Z,6.38
2022-12-20T23:31:48.607Z,6.38
2022-12-20T23:32:46.518Z,6.49
2022-12-20T23:33:48.052Z,6.42
2022-12-20T23:34:46.444Z,6.31
2022-12-20T23:35:46.421Z,6.44
2022-12-20T23:36:48.523Z,6.46
2022-12-20T23:37:46.400Z,6.44
2022-12-20T23:38:47.041Z,6.44
2022-12-20T23:39:46.383Z,6.49
2022-12-20T23:40:46.395Z,6.45
2022-12-20T23:41:46.398Z,6.49
2022-12-20T23:42:46.380Z,6.42
2022-12-20T23:43:46.360Z,6.42
2022-12-20T23:44:46.362Z,6.42
2022-12-20T23:45:46.423Z,6.31
2022-12-20T23:46:46.336Z,6.27
2022-12-20T23:47:46.331Z,6.22
2022-12-20T23:48:47.040Z,6.22
2022-12-20T23:49:46.305Z,6.19
2022-12-20T23:50:46.300Z,6.24
2022-12-20T23:51:46.284Z,6.22
2022-12-20T23:52:46.291Z,6.17
2022-12-20T23:53:46.277Z,6.26
2022-12-20T23:54:47.189Z,6.33
2022-12-20T23:55:46.255Z,6.17
2022-12-20T23:56:46.262Z,6.33
2022-12-20T23:57:46.256Z,6.51
2022-12-20T23:58:46.259Z,6.46
2022-12-20T23:59:46.229Z,6.33
